This is the latest recevied weather packets stored in our database for station/object WE3WEE. If no packets are shown the sender has not sent any weather packets the latest 10 day(s).
| Time | Temp. | Humidity | Pressure | Rain* | Wind** | Luminosity | Snow |
|---|---|---|---|---|---|---|---|
| 1777986687 | 19.44° C | 64% | 1010.6 hPa | 0 mm | - | - | - |
| 1777986386 | 19.44° C | 67% | 1010.6 hPa | 0 mm | - | - | - |
| 1777986084 | 19.44° C | 66% | 1010.6 hPa | 0 mm | - | - | - |
| 1777985780 | 20° C | 62% | 1010.6 hPa | 0 mm | - | - | - |
| 1777985477 | 20° C | 63% | 1009.6 hPa | 0 mm | - | - | - |
| 1777985173 | 20.56° C | 61% | 1009.6 hPa | 0 mm | - | - | - |
| 1777984870 | 20° C | 61% | 1009.6 hPa | 0 mm | - | - | - |
| 1777984566 | 19.44° C | 65% | 1010.6 hPa | 0 mm | - | - | - |
| 1777984263 | 19.44° C | 67% | 1010.6 hPa | 0 mm | - | - | - |
| 1777983959 | 18.33° C | 67% | 1010.6 hPa | 0 mm | - | - | - |
| 1777983656 | 18.33° C | 67% | 1010.6 hPa | 0 mm | - | - | - |
| 1777983353 | 18.33° C | 67% | 1010.6 hPa | 0 mm | - | - | - |
| 1777983050 | 17.78° C | 74% | 1010.6 hPa | 0 mm | - | - | - |
| 1777982746 | 17.78° C | 74% | 1010.6 hPa | 0 mm | - | - | - |
| 1777982442 | 15.56° C | 82% | 1010.6 hPa | 0 mm | - | - | - |
| 1777982136 | 15.56° C | 82% | 1010.6 hPa | 0 mm | - | - | - |
| 1777981834 | 15° C | 84% | 1010.6 hPa | 0 mm | - | - | - |
| 1777981531 | 14.44° C | 87% | 1010.6 hPa | 0 mm | - | - | - |
| 1777981227 | 15° C | 85% | 1010.6 hPa | 0 mm | - | - | - |
| 1777980918 | 15° C | 85% | 1009.6 hPa | 0 mm | - | - | - |
| 1777980614 | 14.44° C | 83% | 1009.6 hPa | 0 mm | - | - | - |
| 1777980310 | 13.33° C | 86% | 1009.6 hPa | 0 mm | - | - | - |
| 1777980009 | 12.78° C | 89% | 1009.6 hPa | 0 mm | - | - | - |
| 1777979703 | 12.22° C | 89% | 1009.6 hPa | 0 mm | - | - | - |
| 1777979399 | 11.67° C | 91% | 1009.6 hPa | 0 mm | - | - | - |
* Rain latest hour (hover to see other rain measurements)
** Current wind speed in m/s (hover to see current wind gust speed)